sensor_id;sensor_type;location;lat;lon;timestamp;P1;durP1;ratioP1;P2;durP2;ratioP2
82797;SDS011;72540;62.834;27.606;2024-01-10T00:00:29;0.40;;;0.10;;
82797;SDS011;72540;62.834;27.606;2024-01-10T00:02:55;1.08;;;0.28;;
82797;SDS011;72540;62.834;27.606;2024-01-10T00:05:22;0.05;;;0.05;;
82797;SDS011;72540;62.834;27.606;2024-01-10T00:07:48;1.27;;;0.30;;
82797;SDS011;72540;62.834;27.606;2024-01-10T00:10:14;0.93;;;0.30;;
82797;SDS011;72540;62.834;27.606;2024-01-10T00:12:40;1.00;;;0.60;;
82797;SDS011;72540;62.834;27.606;2024-01-10T00:15:09;0.52;;;0.20;;
82797;SDS011;72540;62.834;27.606;2024-01-10T00:17:35;0.10;;;0.10;;
82797;SDS011;72540;62.834;27.606;2024-01-10T00:20:01;0.35;;;0.20;;
82797;SDS011;72540;62.834;27.606;2024-01-10T00:22:28;0.25;;;0.15;;
82797;SDS011;72540;62.834;27.606;2024-01-10T00:24:56;0.38;;;0.17;;
82797;SDS011;72540;62.834;27.606;2024-01-10T00:27:22;0.30;;;0.10;;
82797;SDS011;72540;62.834;27.606;2024-01-10T00:29:48;0.95;;;0.17;;
82797;SDS011;72540;62.834;27.606;2024-01-10T00:32:17;0.30;;;0.25;;
82797;SDS011;72540;62.834;27.606;2024-01-10T00:34:43;0.22;;;0.10;;
82797;SDS011;72540;62.834;27.606;2024-01-10T00:37:09;0.63;;;0.28;;
82797;SDS011;72540;62.834;27.606;2024-01-10T00:39:35;1.20;;;0.40;;
82797;SDS011;72540;62.834;27.606;2024-01-10T00:42:02;0.65;;;0.22;;
82797;SDS011;72540;62.834;27.606;2024-01-10T00:44:28;0.82;;;0.40;;
82797;SDS011;72540;62.834;27.606;2024-01-10T00:46:54;0.90;;;0.40;;
82797;SDS011;72540;62.834;27.606;2024-01-10T00:49:20;0.57;;;0.30;;
82797;SDS011;72540;62.834;27.606;2024-01-10T00:51:46;0.75;;;0.28;;
82797;SDS011;72540;62.834;27.606;2024-01-10T00:54:12;1.05;;;0.17;;
82797;SDS011;72540;62.834;27.606;2024-01-10T00:56:39;0.77;;;0.30;;
82797;SDS011;72540;62.834;27.606;2024-01-10T00:59:05;0.80;;;0.22;;
82797;SDS011;72540;62.834;27.606;2024-01-10T01:01:32;1.60;;;0.40;;
82797;SDS011;72540;62.834;27.606;2024-01-10T01:03:58;0.88;;;0.30;;
82797;SDS011;72540;62.834;27.606;2024-01-10T01:06:24;1.65;;;0.28;;
82797;SDS011;72540;62.834;27.606;2024-01-10T01:08:50;1.05;;;0.40;;
82797;SDS011;72540;62.834;27.606;2024-01-10T01:11:17;1.70;;;0.50;;
82797;SDS011;72540;62.834;27.606;2024-01-10T01:13:43;2.70;;;0.68;;
82797;SDS011;72540;62.834;27.606;2024-01-10T01:16:10;1.80;;;0.20;;
82797;SDS011;72540;62.834;27.606;2024-01-10T01:18:37;2.22;;;0.40;;
82797;SDS011;72540;62.834;27.606;2024-01-10T01:21:11;1.45;;;0.32;;
82797;SDS011;72540;62.834;27.606;2024-01-10T01:23:37;0.63;;;0.30;;
82797;SDS011;72540;62.834;27.606;2024-01-10T01:26:03;1.38;;;0.50;;
82797;SDS011;72540;62.834;27.606;2024-01-10T01:28:30;1.85;;;0.50;;
82797;SDS011;72540;62.834;27.606;2024-01-10T01:30:57;0.40;;;0.30;;
82797;SDS011;72540;62.834;27.606;2024-01-10T01:33:23;2.08;;;0.60;;
82797;SDS011;72540;62.834;27.606;2024-01-10T01:35:49;1.23;;;0.60;;
82797;SDS011;72540;62.834;27.606;2024-01-10T01:38:15;1.60;;;0.55;;
82797;SDS011;72540;62.834;27.606;2024-01-10T01:40:41;1.13;;;0.50;;
82797;SDS011;72540;62.834;27.606;2024-01-10T01:43:23;0.32;;;0.25;;
82797;SDS011;72540;62.834;27.606;2024-01-10T01:45:55;1.70;;;0.55;;
82797;SDS011;72540;62.834;27.606;2024-01-10T01:48:22;1.48;;;0.40;;
82797;SDS011;72540;62.834;27.606;2024-01-10T01:50:54;1.95;;;0.43;;
82797;SDS011;72540;62.834;27.606;2024-01-10T01:53:23;2.00;;;0.50;;
82797;SDS011;72540;62.834;27.606;2024-01-10T01:55:51;1.15;;;0.55;;
82797;SDS011;72540;62.834;27.606;2024-01-10T01:58:18;1.88;;;0.60;;
82797;SDS011;72540;62.834;27.606;2024-01-10T02:00:45;1.27;;;0.40;;
82797;SDS011;72540;62.834;27.606;2024-01-10T02:03:12;3.58;;;0.50;;
82797;SDS011;72540;62.834;27.606;2024-01-10T02:05:38;1.67;;;0.57;;
82797;SDS011;72540;62.834;27.606;2024-01-10T02:08:04;2.45;;;0.70;;
82797;SDS011;72540;62.834;27.606;2024-01-10T02:10:31;1.45;;;0.45;;
82797;SDS011;72540;62.834;27.606;2024-01-10T02:12:57;1.00;;;0.50;;
82797;SDS011;72540;62.834;27.606;2024-01-10T02:15:23;0.93;;;0.52;;
82797;SDS011;72540;62.834;27.606;2024-01-10T02:17:50;1.33;;;0.30;;
82797;SDS011;72540;62.834;27.606;2024-01-10T02:20:16;2.00;;;0.40;;
82797;SDS011;72540;62.834;27.606;2024-01-10T02:22:42;1.13;;;0.45;;
82797;SDS011;72540;62.834;27.606;2024-01-10T02:25:12;2.20;;;0.60;;
82797;SDS011;72540;62.834;27.606;2024-01-10T02:27:40;1.45;;;0.40;;
82797;SDS011;72540;62.834;27.606;2024-01-10T02:30:07;1.52;;;0.50;;
82797;SDS011;72540;62.834;27.606;2024-01-10T02:32:34;1.95;;;0.68;;
82797;SDS011;72540;62.834;27.606;2024-01-10T02:35:00;1.15;;;0.60;;
82797;SDS011;72540;62.834;27.606;2024-01-10T02:37:26;1.55;;;0.40;;
82797;SDS011;72540;62.834;27.606;2024-01-10T02:39:52;0.88;;;0.38;;
82797;SDS011;72540;62.834;27.606;2024-01-10T02:42:18;1.95;;;0.35;;
82797;SDS011;72540;62.834;27.606;2024-01-10T02:44:44;1.23;;;0.50;;
82797;SDS011;72540;62.834;27.606;2024-01-10T02:47:11;2.05;;;0.50;;
82797;SDS011;72540;62.834;27.606;2024-01-10T02:49:37;1.50;;;0.40;;
82797;SDS011;72540;62.834;27.606;2024-01-10T02:52:03;1.50;;;0.50;;
82797;SDS011;72540;62.834;27.606;2024-01-10T02:54:30;1.30;;;0.50;;
82797;SDS011;72540;62.834;27.606;2024-01-10T02:56:56;1.05;;;0.50;;
82797;SDS011;72540;62.834;27.606;2024-01-10T02:59:22;2.08;;;0.77;;
82797;SDS011;72540;62.834;27.606;2024-01-10T03:01:48;0.77;;;0.43;;
82797;SDS011;72540;62.834;27.606;2024-01-10T03:04:14;1.05;;;0.43;;
82797;SDS011;72540;62.834;27.606;2024-01-10T03:06:40;1.15;;;0.40;;
82797;SDS011;72540;62.834;27.606;2024-01-10T03:09:06;0.75;;;0.40;;
82797;SDS011;72540;62.834;27.606;2024-01-10T03:11:32;1.27;;;0.32;;
82797;SDS011;72540;62.834;27.606;2024-01-10T03:14:01;0.40;;;0.20;;
82797;SDS011;72540;62.834;27.606;2024-01-10T03:16:29;0.73;;;0.40;;
82797;SDS011;72540;62.834;27.606;2024-01-10T03:18:56;0.30;;;0.20;;
82797;SDS011;72540;62.834;27.606;2024-01-10T03:21:22;0.20;;;0.20;;
82797;SDS011;72540;62.834;27.606;2024-01-10T03:23:56;0.43;;;0.30;;
82797;SDS011;72540;62.834;27.606;2024-01-10T03:26:23;1.08;;;0.30;;
82797;SDS011;72540;62.834;27.606;2024-01-10T03:28:49;0.47;;;0.30;;
82797;SDS011;72540;62.834;27.606;2024-01-10T03:31:16;0.20;;;0.20;;
82797;SDS011;72540;62.834;27.606;2024-01-10T03:33:42;0.63;;;0.40;;
82797;SDS011;72540;62.834;27.606;2024-01-10T03:36:10;0.65;;;0.20;;
82797;SDS011;72540;62.834;27.606;2024-01-10T03:38:37;1.35;;;0.47;;
82797;SDS011;72540;62.834;27.606;2024-01-10T03:41:04;0.50;;;0.30;;
82797;SDS011;72540;62.834;27.606;2024-01-10T03:43:30;0.70;;;0.35;;
82797;SDS011;72540;62.834;27.606;2024-01-10T03:45:57;0.52;;;0.30;;
82797;SDS011;72540;62.834;27.606;2024-01-10T03:48:24;0.68;;;0.30;;
82797;SDS011;72540;62.834;27.606;2024-01-10T03:50:50;0.55;;;0.20;;
82797;SDS011;72540;62.834;27.606;2024-01-10T03:53:16;0.25;;;0.20;;
82797;SDS011;72540;62.834;27.606;2024-01-10T03:55:43;0.28;;;0.22;;
82797;SDS011;72540;62.834;27.606;2024-01-10T03:58:09;0.70;;;0.32;;
82797;SDS011;72540;62.834;27.606;2024-01-10T04:00:35;0.82;;;0.25;;
82797;SDS011;72540;62.834;27.606;2024-01-10T04:03:01;0.90;;;0.30;;
82797;SDS011;72540;62.834;27.606;2024-01-10T04:05:29;0.80;;;0.32;;
82797;SDS011;72540;62.834;27.606;2024-01-10T04:07:55;0.47;;;0.30;;
82797;SDS011;72540;62.834;27.606;2024-01-10T04:10:22;1.50;;;0.52;;
82797;SDS011;72540;62.834;27.606;2024-01-10T04:12:48;1.00;;;0.45;;
82797;SDS011;72540;62.834;27.606;2024-01-10T04:15:15;1.08;;;0.50;;
82797;SDS011;72540;62.834;27.606;2024-01-10T04:17:43;1.85;;;0.55;;
82797;SDS011;72540;62.834;27.606;2024-01-10T04:20:09;0.88;;;0.32;;
82797;SDS011;72540;62.834;27.606;2024-01-10T04:22:35;0.52;;;0.38;;
82797;SDS011;72540;62.834;27.606;2024-01-10T04:25:03;1.35;;;0.47;;
82797;SDS011;72540;62.834;27.606;2024-01-10T04:27:31;0.40;;;0.30;;
82797;SDS011;72540;62.834;27.606;2024-01-10T04:29:57;1.10;;;0.47;;
82797;SDS011;72540;62.834;27.606;2024-01-10T04:32:23;0.85;;;0.40;;
82797;SDS011;72540;62.834;27.606;2024-01-10T04:34:49;1.33;;;0.40;;
82797;SDS011;72540;62.834;27.606;2024-01-10T04:37:16;0.88;;;0.30;;
82797;SDS011;72540;62.834;27.606;2024-01-10T04:39:42;2.03;;;0.40;;
82797;SDS011;72540;62.834;27.606;2024-01-10T04:42:08;0.43;;;0.22;;
82797;SDS011;72540;62.834;27.606;2024-01-10T04:44:36;0.85;;;0.50;;
82797;SDS011;72540;62.834;27.606;2024-01-10T04:47:03;1.83;;;0.70;;
82797;SDS011;72540;62.834;27.606;2024-01-10T04:49:30;1.15;;;0.43;;
82797;SDS011;72540;62.834;27.606;2024-01-10T04:51:56;0.88;;;0.30;;
82797;SDS011;72540;62.834;27.606;2024-01-10T04:54:26;0.25;;;0.25;;
82797;SDS011;72540;62.834;27.606;2024-01-10T04:56:55;0.52;;;0.30;;
82797;SDS011;72540;62.834;27.606;2024-01-10T04:59:24;1.25;;;0.47;;
82797;SDS011;72540;62.834;27.606;2024-01-10T05:01:50;1.30;;;0.55;;
82797;SDS011;72540;62.834;27.606;2024-01-10T05:04:22;0.43;;;0.40;;
82797;SDS011;72540;62.834;27.606;2024-01-10T05:06:51;0.98;;;0.40;;
82797;SDS011;72540;62.834;27.606;2024-01-10T05:09:17;0.80;;;0.40;;
82797;SDS011;72540;62.834;27.606;2024-01-10T05:11:43;0.90;;;0.32;;
82797;SDS011;72540;62.834;27.606;2024-01-10T05:14:12;1.38;;;0.50;;
82797;SDS011;72540;62.834;27.606;2024-01-10T05:16:38;0.95;;;0.47;;
82797;SDS011;72540;62.834;27.606;2024-01-10T05:19:05;1.00;;;0.40;;
82797;SDS011;72540;62.834;27.606;2024-01-10T05:21:31;1.08;;;0.50;;
82797;SDS011;72540;62.834;27.606;2024-01-10T05:23:58;0.20;;;0.20;;
82797;SDS011;72540;62.834;27.606;2024-01-10T05:26:24;1.15;;;0.40;;
82797;SDS011;72540;62.834;27.606;2024-01-10T05:28:51;0.60;;;0.30;;
82797;SDS011;72540;62.834;27.606;2024-01-10T05:31:17;0.57;;;0.47;;
82797;SDS011;72540;62.834;27.606;2024-01-10T05:33:43;1.10;;;0.50;;
82797;SDS011;72540;62.834;27.606;2024-01-10T05:36:10;0.77;;;0.40;;
82797;SDS011;72540;62.834;27.606;2024-01-10T05:38:39;1.10;;;0.38;;
82797;SDS011;72540;62.834;27.606;2024-01-10T05:41:08;0.45;;;0.30;;
82797;SDS011;72540;62.834;27.606;2024-01-10T05:43:35;1.15;;;0.55;;
82797;SDS011;72540;62.834;27.606;2024-01-10T05:46:04;0.85;;;0.30;;
82797;SDS011;72540;62.834;27.606;2024-01-10T05:48:31;1.27;;;0.50;;
82797;SDS011;72540;62.834;27.606;2024-01-10T05:51:01;1.17;;;0.52;;
82797;SDS011;72540;62.834;27.606;2024-01-10T05:53:27;1.55;;;0.75;;
82797;SDS011;72540;62.834;27.606;2024-01-10T05:55:53;1.75;;;0.60;;
82797;SDS011;72540;62.834;27.606;2024-01-10T05:58:20;2.17;;;0.70;;
82797;SDS011;72540;62.834;27.606;2024-01-10T06:00:49;1.98;;;0.65;;
82797;SDS011;72540;62.834;27.606;2024-01-10T06:03:15;3.53;;;0.90;;
82797;SDS011;72540;62.834;27.606;2024-01-10T06:05:42;5.32;;;0.90;;
82797;SDS011;72540;62.834;27.606;2024-01-10T06:08:08;4.10;;;1.08;;
82797;SDS011;72540;62.834;27.606;2024-01-10T06:10:35;4.38;;;1.40;;
82797;SDS011;72540;62.834;27.606;2024-01-10T06:13:02;2.65;;;0.90;;
82797;SDS011;72540;62.834;27.606;2024-01-10T06:15:29;4.05;;;1.17;;
82797;SDS011;72540;62.834;27.606;2024-01-10T06:17:55;3.78;;;1.13;;
82797;SDS011;72540;62.834;27.606;2024-01-10T06:20:22;3.90;;;1.17;;
82797;SDS011;72540;62.834;27.606;2024-01-10T06:22:49;3.22;;;1.20;;
82797;SDS011;72540;62.834;27.606;2024-01-10T06:25:15;4.10;;;1.42;;
82797;SDS011;72540;62.834;27.606;2024-01-10T06:27:42;4.22;;;1.23;;
82797;SDS011;72540;62.834;27.606;2024-01-10T06:30:09;3.55;;;1.15;;
82797;SDS011;72540;62.834;27.606;2024-01-10T06:32:37;4.55;;;0.93;;
82797;SDS011;72540;62.834;27.606;2024-01-10T06:35:05;3.72;;;1.10;;
82797;SDS011;72540;62.834;27.606;2024-01-10T06:37:32;3.28;;;1.00;;
82797;SDS011;72540;62.834;27.606;2024-01-10T06:40:01;3.70;;;1.20;;
82797;SDS011;72540;62.834;27.606;2024-01-10T06:42:30;3.85;;;1.17;;
82797;SDS011;72540;62.834;27.606;2024-01-10T06:44:57;5.00;;;1.40;;
82797;SDS011;72540;62.834;27.606;2024-01-10T06:47:23;2.38;;;0.90;;
82797;SDS011;72540;62.834;27.606;2024-01-10T06:49:50;4.43;;;1.30;;
82797;SDS011;72540;62.834;27.606;2024-01-10T06:52:16;3.47;;;1.17;;
82797;SDS011;72540;62.834;27.606;2024-01-10T06:54:43;3.78;;;1.30;;
82797;SDS011;72540;62.834;27.606;2024-01-10T06:57:12;3.70;;;1.13;;
82797;SDS011;72540;62.834;27.606;2024-01-10T06:59:38;3.85;;;1.20;;
82797;SDS011;72540;62.834;27.606;2024-01-10T07:02:05;3.83;;;1.20;;
82797;SDS011;72540;62.834;27.606;2024-01-10T07:04:36;3.08;;;1.10;;
82797;SDS011;72540;62.834;27.606;2024-01-10T07:07:04;4.43;;;1.23;;
82797;SDS011;72540;62.834;27.606;2024-01-10T07:09:31;5.30;;;1.20;;
82797;SDS011;72540;62.834;27.606;2024-01-10T07:12:00;3.35;;;1.20;;
82797;SDS011;72540;62.834;27.606;2024-01-10T07:14:30;3.60;;;0.93;;
82797;SDS011;72540;62.834;27.606;2024-01-10T07:16:58;2.60;;;0.90;;
82797;SDS011;72540;62.834;27.606;2024-01-10T07:19:25;3.20;;;0.90;;
82797;SDS011;72540;62.834;27.606;2024-01-10T07:21:51;3.75;;;1.15;;
82797;SDS011;72540;62.834;27.606;2024-01-10T07:24:19;3.50;;;1.25;;
82797;SDS011;72540;62.834;27.606;2024-01-10T07:26:46;2.50;;;0.80;;
82797;SDS011;72540;62.834;27.606;2024-01-10T07:29:12;3.85;;;1.10;;
82797;SDS011;72540;62.834;27.606;2024-01-10T07:31:39;2.22;;;0.80;;
82797;SDS011;72540;62.834;27.606;2024-01-10T07:34:07;1.95;;;0.80;;
82797;SDS011;72540;62.834;27.606;2024-01-10T07:36:40;1.67;;;0.70;;
82797;SDS011;72540;62.834;27.606;2024-01-10T07:39:08;3.00;;;1.08;;
82797;SDS011;72540;62.834;27.606;2024-01-10T07:41:35;2.13;;;0.70;;
82797;SDS011;72540;62.834;27.606;2024-01-10T07:44:00;2.90;;;0.90;;
82797;SDS011;72540;62.834;27.606;2024-01-10T07:46:28;1.85;;;0.82;;
82797;SDS011;72540;62.834;27.606;2024-01-10T07:48:55;1.65;;;0.65;;
82797;SDS011;72540;62.834;27.606;2024-01-10T07:51:22;2.78;;;0.90;;
82797;SDS011;72540;62.834;27.606;2024-01-10T07:53:49;2.38;;;0.70;;
82797;SDS011;72540;62.834;27.606;2024-01-10T07:56:15;1.80;;;0.73;;
82797;SDS011;72540;62.834;27.606;2024-01-10T07:58:41;2.10;;;0.77;;
82797;SDS011;72540;62.834;27.606;2024-01-10T08:01:09;1.83;;;0.95;;
82797;SDS011;72540;62.834;27.606;2024-01-10T08:03:37;2.40;;;0.80;;
82797;SDS011;72540;62.834;27.606;2024-01-10T08:06:04;1.52;;;0.63;;
82797;SDS011;72540;62.834;27.606;2024-01-10T08:08:31;2.58;;;0.90;;
82797;SDS011;72540;62.834;27.606;2024-01-10T08:10:57;3.58;;;1.30;;
82797;SDS011;72540;62.834;27.606;2024-01-10T08:13:23;2.83;;;1.00;;
82797;SDS011;72540;62.834;27.606;2024-01-10T08:15:48;1.23;;;0.63;;
82797;SDS011;72540;62.834;27.606;2024-01-10T08:18:14;2.58;;;1.02;;
82797;SDS011;72540;62.834;27.606;2024-01-10T08:20:40;1.60;;;0.80;;
82797;SDS011;72540;62.834;27.606;2024-01-10T08:23:06;1.30;;;0.60;;
82797;SDS011;72540;62.834;27.606;2024-01-10T08:25:31;1.67;;;0.70;;
82797;SDS011;72540;62.834;27.606;2024-01-10T08:27:57;1.00;;;0.52;;
82797;SDS011;72540;62.834;27.606;2024-01-10T08:30:23;2.22;;;0.77;;
82797;SDS011;72540;62.834;27.606;2024-01-10T08:32:50;2.80;;;0.75;;
82797;SDS011;72540;62.834;27.606;2024-01-10T08:35:15;2.80;;;0.70;;
82797;SDS011;72540;62.834;27.606;2024-01-10T08:37:41;1.45;;;0.52;;
82797;SDS011;72540;62.834;27.606;2024-01-10T08:40:11;1.77;;;0.70;;
82797;SDS011;72540;62.834;27.606;2024-01-10T08:42:40;1.73;;;0.60;;
82797;SDS011;72540;62.834;27.606;2024-01-10T08:45:07;2.70;;;0.93;;
82797;SDS011;72540;62.834;27.606;2024-01-10T08:47:35;2.70;;;0.90;;
82797;SDS011;72540;62.834;27.606;2024-01-10T08:50:05;0.68;;;0.38;;
82797;SDS011;72540;62.834;27.606;2024-01-10T08:52:34;2.53;;;0.80;;
82797;SDS011;72540;62.834;27.606;2024-01-10T08:55:04;1.63;;;0.50;;
82797;SDS011;72540;62.834;27.606;2024-01-10T08:57:31;2.03;;;0.68;;
82797;SDS011;72540;62.834;27.606;2024-01-10T08:59:57;2.55;;;0.75;;
82797;SDS011;72540;62.834;27.606;2024-01-10T09:02:22;4.28;;;1.10;;
82797;SDS011;72540;62.834;27.606;2024-01-10T09:04:49;3.05;;;1.00;;
82797;SDS011;72540;62.834;27.606;2024-01-10T09:07:15;3.03;;;0.80;;
82797;SDS011;72540;62.834;27.606;2024-01-10T09:09:43;2.40;;;0.93;;
82797;SDS011;72540;62.834;27.606;2024-01-10T09:12:09;2.63;;;1.23;;
82797;SDS011;72540;62.834;27.606;2024-01-10T09:14:35;3.22;;;1.15;;
82797;SDS011;72540;62.834;27.606;2024-01-10T09:17:00;2.88;;;1.10;;
82797;SDS011;72540;62.834;27.606;2024-01-10T09:19:29;4.40;;;1.23;;
82797;SDS011;72540;62.834;27.606;2024-01-10T09:21:55;3.05;;;1.00;;
82797;SDS011;72540;62.834;27.606;2024-01-10T09:24:23;3.72;;;1.30;;
82797;SDS011;72540;62.834;27.606;2024-01-10T09:26:51;2.95;;;0.90;;
82797;SDS011;72540;62.834;27.606;2024-01-10T09:29:17;2.80;;;1.05;;
82797;SDS011;72540;62.834;27.606;2024-01-10T09:31:43;3.13;;;1.10;;
82797;SDS011;72540;62.834;27.606;2024-01-10T09:34:09;3.47;;;1.00;;
82797;SDS011;72540;62.834;27.606;2024-01-10T09:36:34;3.28;;;1.05;;
82797;SDS011;72540;62.834;27.606;2024-01-10T09:39:00;3.78;;;1.10;;
82797;SDS011;72540;62.834;27.606;2024-01-10T09:41:28;1.65;;;0.70;;
82797;SDS011;72540;62.834;27.606;2024-01-10T09:43:53;1.83;;;0.80;;
82797;SDS011;72540;62.834;27.606;2024-01-10T09:46:19;3.30;;;1.40;;
82797;SDS011;72540;62.834;27.606;2024-01-10T09:48:44;4.53;;;1.20;;
82797;SDS011;72540;62.834;27.606;2024-01-10T09:51:10;3.88;;;1.20;;
82797;SDS011;72540;62.834;27.606;2024-01-10T09:53:37;2.80;;;1.00;;
82797;SDS011;72540;62.834;27.606;2024-01-10T09:56:09;3.97;;;1.23;;
82797;SDS011;72540;62.834;27.606;2024-01-10T09:58:35;3.30;;;1.20;;
82797;SDS011;72540;62.834;27.606;2024-01-10T10:01:05;4.35;;;1.13;;
82797;SDS011;72540;62.834;27.606;2024-01-10T10:03:33;2.75;;;1.00;;
82797;SDS011;72540;62.834;27.606;2024-01-10T10:06:03;3.78;;;1.00;;
82797;SDS011;72540;62.834;27.606;2024-01-10T10:08:29;3.65;;;1.20;;
82797;SDS011;72540;62.834;27.606;2024-01-10T10:10:55;3.03;;;1.15;;
82797;SDS011;72540;62.834;27.606;2024-01-10T10:13:27;4.13;;;1.10;;
82797;SDS011;72540;62.834;27.606;2024-01-10T10:16:00;4.22;;;1.33;;
82797;SDS011;72540;62.834;27.606;2024-01-10T10:18:30;2.65;;;0.70;;
82797;SDS011;72540;62.834;27.606;2024-01-10T10:21:06;3.78;;;1.20;;
82797;SDS011;72540;62.834;27.606;2024-01-10T10:23:37;2.75;;;1.10;;
82797;SDS011;72540;62.834;27.606;2024-01-10T10:26:14;4.18;;;1.25;;
82797;SDS011;72540;62.834;27.606;2024-01-10T10:28:48;3.15;;;1.20;;
82797;SDS011;72540;62.834;27.606;2024-01-10T10:31:18;3.45;;;1.30;;
82797;SDS011;72540;62.834;27.606;2024-01-10T10:33:44;2.38;;;0.80;;
82797;SDS011;72540;62.834;27.606;2024-01-10T10:36:10;3.17;;;1.08;;
82797;SDS011;72540;62.834;27.606;2024-01-10T10:38:39;2.28;;;0.73;;
82797;SDS011;72540;62.834;27.606;2024-01-10T10:41:05;2.80;;;1.08;;
82797;SDS011;72540;62.834;27.606;2024-01-10T10:43:36;3.03;;;0.85;;
82797;SDS011;72540;62.834;27.606;2024-01-10T10:46:03;4.57;;;1.30;;
82797;SDS011;72540;62.834;27.606;2024-01-10T10:48:32;2.83;;;1.00;;
82797;SDS011;72540;62.834;27.606;2024-01-10T10:51:09;1.60;;;0.68;;
82797;SDS011;72540;62.834;27.606;2024-01-10T10:53:36;2.38;;;0.82;;
82797;SDS011;72540;62.834;27.606;2024-01-10T10:56:07;2.53;;;0.98;;
82797;SDS011;72540;62.834;27.606;2024-01-10T10:58:33;2.67;;;0.90;;
82797;SDS011;72540;62.834;27.606;2024-01-10T11:01:07;1.55;;;0.70;;
82797;SDS011;72540;62.834;27.606;2024-01-10T11:03:35;2.10;;;0.82;;
82797;SDS011;72540;62.834;27.606;2024-01-10T11:06:02;2.33;;;0.90;;
82797;SDS011;72540;62.834;27.606;2024-01-10T11:08:34;2.58;;;1.00;;
82797;SDS011;72540;62.834;27.606;2024-01-10T11:11:03;1.75;;;0.65;;
82797;SDS011;72540;62.834;27.606;2024-01-10T11:13:50;1.95;;;0.70;;
82797;SDS011;72540;62.834;27.606;2024-01-10T11:19:23;2.53;;;0.80;;
82797;SDS011;72540;62.834;27.606;2024-01-10T11:22:16;1.80;;;0.63;;
82797;SDS011;72540;62.834;27.606;2024-01-10T11:24:55;1.33;;;0.70;;
82797;SDS011;72540;62.834;27.606;2024-01-10T11:27:20;1.35;;;0.63;;
82797;SDS011;72540;62.834;27.606;2024-01-10T11:29:46;1.55;;;0.60;;
82797;SDS011;72540;62.834;27.606;2024-01-10T11:32:22;2.35;;;0.70;;
82797;SDS011;72540;62.834;27.606;2024-01-10T11:35:03;1.80;;;0.65;;
82797;SDS011;72540;62.834;27.606;2024-01-10T11:37:41;1.13;;;0.52;;
82797;SDS011;72540;62.834;27.606;2024-01-10T11:40:08;0.82;;;0.47;;
82797;SDS011;72540;62.834;27.606;2024-01-10T11:42:44;0.90;;;0.35;;
82797;SDS011;72540;62.834;27.606;2024-01-10T11:48:01;1.48;;;0.50;;
82797;SDS011;72540;62.834;27.606;2024-01-10T11:50:27;0.35;;;0.35;;
82797;SDS011;72540;62.834;27.606;2024-01-10T11:52:53;1.48;;;0.50;;
82797;SDS011;72540;62.834;27.606;2024-01-10T11:58:18;0.77;;;0.35;;
82797;SDS011;72540;62.834;27.606;2024-01-10T12:00:44;0.80;;;0.38;;
82797;SDS011;72540;62.834;27.606;2024-01-10T12:03:11;0.70;;;0.30;;
82797;SDS011;72540;62.834;27.606;2024-01-10T12:05:37;0.70;;;0.30;;
82797;SDS011;72540;62.834;27.606;2024-01-10T12:08:06;1.00;;;0.40;;
82797;SDS011;72540;62.834;27.606;2024-01-10T12:10:33;0.98;;;0.30;;
82797;SDS011;72540;62.834;27.606;2024-01-10T12:13:02;0.88;;;0.30;;
82797;SDS011;72540;62.834;27.606;2024-01-10T12:15:28;0.70;;;0.30;;
82797;SDS011;72540;62.834;27.606;2024-01-10T12:17:54;0.80;;;0.32;;
82797;SDS011;72540;62.834;27.606;2024-01-10T12:20:20;1.65;;;0.43;;
82797;SDS011;72540;62.834;27.606;2024-01-10T12:22:46;0.75;;;0.40;;
82797;SDS011;72540;62.834;27.606;2024-01-10T12:25:12;0.20;;;0.15;;
82797;SDS011;72540;62.834;27.606;2024-01-10T12:27:38;0.93;;;0.20;;
82797;SDS011;72540;62.834;27.606;2024-01-10T12:30:04;0.20;;;0.20;;
82797;SDS011;72540;62.834;27.606;2024-01-10T12:32:30;0.65;;;0.32;;
82797;SDS011;72540;62.834;27.606;2024-01-10T12:35:03;1.27;;;0.30;;
82797;SDS011;72540;62.834;27.606;2024-01-10T12:37:29;0.60;;;0.20;;
82797;SDS011;72540;62.834;27.606;2024-01-10T12:39:58;0.95;;;0.20;;
82797;SDS011;72540;62.834;27.606;2024-01-10T12:42:24;0.45;;;0.30;;
82797;SDS011;72540;62.834;27.606;2024-01-10T12:44:49;0.00;;;0.00;;
82797;SDS011;72540;62.834;27.606;2024-01-10T12:47:19;0.00;;;0.00;;
82797;SDS011;72540;62.834;27.606;2024-01-10T12:49:45;0.20;;;0.20;;
82797;SDS011;72540;62.834;27.606;2024-01-10T12:52:11;0.00;;;0.00;;
82797;SDS011;72540;62.834;27.606;2024-01-10T12:54:40;0.13;;;0.13;;
82797;SDS011;72540;62.834;27.606;2024-01-10T12:57:07;0.32;;;0.10;;
82797;SDS011;72540;62.834;27.606;2024-01-10T12:59:33;0.52;;;0.20;;
82797;SDS011;72540;62.834;27.606;2024-01-10T13:01:59;0.17;;;0.17;;
82797;SDS011;72540;62.834;27.606;2024-01-10T13:04:24;0.00;;;0.00;;
82797;SDS011;72540;62.834;27.606;2024-01-10T13:06:50;0.05;;;0.05;;
82797;SDS011;72540;62.834;27.606;2024-01-10T13:09:16;0.90;;;0.13;;
82797;SDS011;72540;62.834;27.606;2024-01-10T13:11:41;0.65;;;0.20;;
82797;SDS011;72540;62.834;27.606;2024-01-10T13:14:07;0.32;;;0.22;;
82797;SDS011;72540;62.834;27.606;2024-01-10T13:16:34;0.15;;;0.10;;
82797;SDS011;72540;62.834;27.606;2024-01-10T13:19:00;0.52;;;0.20;;
82797;SDS011;72540;62.834;27.606;2024-01-10T13:21:26;0.10;;;0.10;;
82797;SDS011;72540;62.834;27.606;2024-01-10T13:23:51;0.00;;;0.00;;
82797;SDS011;72540;62.834;27.606;2024-01-10T13:26:18;0.70;;;0.10;;
82797;SDS011;72540;62.834;27.606;2024-01-10T13:28:43;0.60;;;0.15;;
82797;SDS011;72540;62.834;27.606;2024-01-10T13:31:09;0.17;;;0.10;;
82797;SDS011;72540;62.834;27.606;2024-01-10T13:33:35;0.05;;;0.05;;
82797;SDS011;72540;62.834;27.606;2024-01-10T13:36:02;0.08;;;0.00;;
82797;SDS011;72540;62.834;27.606;2024-01-10T13:38:29;0.52;;;0.20;;
82797;SDS011;72540;62.834;27.606;2024-01-10T13:40:57;0.13;;;0.00;;
82797;SDS011;72540;62.834;27.606;2024-01-10T13:43:24;0.10;;;0.10;;
82797;SDS011;72540;62.834;27.606;2024-01-10T13:45:51;0.47;;;0.20;;
82797;SDS011;72540;62.834;27.606;2024-01-10T13:48:17;3.03;;;0.30;;
82797;SDS011;72540;62.834;27.606;2024-01-10T13:50:43;0.30;;;0.20;;
82797;SDS011;72540;62.834;27.606;2024-01-10T13:53:10;0.40;;;0.20;;
82797;SDS011;72540;62.834;27.606;2024-01-10T13:55:36;0.20;;;0.10;;
82797;SDS011;72540;62.834;27.606;2024-01-10T13:58:02;1.08;;;0.38;;
82797;SDS011;72540;62.834;27.606;2024-01-10T14:00:29;0.22;;;0.22;;
82797;SDS011;72540;62.834;27.606;2024-01-10T14:02:56;0.55;;;0.20;;
82797;SDS011;72540;62.834;27.606;2024-01-10T14:05:26;0.40;;;0.22;;
82797;SDS011;72540;62.834;27.606;2024-01-10T14:07:52;0.40;;;0.10;;
82797;SDS011;72540;62.834;27.606;2024-01-10T14:10:18;0.20;;;0.20;;
82797;SDS011;72540;62.834;27.606;2024-01-10T14:12:45;0.00;;;0.00;;
82797;SDS011;72540;62.834;27.606;2024-01-10T14:15:13;0.38;;;0.10;;
82797;SDS011;72540;62.834;27.606;2024-01-10T14:17:40;0.10;;;0.10;;
82797;SDS011;72540;62.834;27.606;2024-01-10T14:20:06;0.47;;;0.10;;
82797;SDS011;72540;62.834;27.606;2024-01-10T14:22:35;0.15;;;0.10;;
82797;SDS011;72540;62.834;27.606;2024-01-10T14:25:01;0.32;;;0.10;;
82797;SDS011;72540;62.834;27.606;2024-01-10T14:27:27;0.20;;;0.20;;
82797;SDS011;72540;62.834;27.606;2024-01-10T14:29:53;0.40;;;0.10;;
82797;SDS011;72540;62.834;27.606;2024-01-10T14:32:18;0.50;;;0.35;;
82797;SDS011;72540;62.834;27.606;2024-01-10T14:34:44;0.57;;;0.20;;
82797;SDS011;72540;62.834;27.606;2024-01-10T14:37:11;0.60;;;0.10;;
82797;SDS011;72540;62.834;27.606;2024-01-10T14:39:37;1.02;;;0.30;;
82797;SDS011;72540;62.834;27.606;2024-01-10T14:42:07;0.82;;;0.30;;